sensor_id;sensor_type;location;lat;lon;timestamp;P1;durP1;ratioP1;P2;durP2;ratioP2
67640;SDS011;54434;50.096;20.082;2022-12-29T00:01:00;11.40;;;5.20;;
67640;SDS011;54434;50.096;20.082;2022-12-29T00:03:37;10.90;;;5.00;;
67640;SDS011;54434;50.096;20.082;2022-12-29T00:06:14;13.30;;;5.30;;
67640;SDS011;54434;50.096;20.082;2022-12-29T00:08:50;11.70;;;4.90;;
67640;SDS011;54434;50.096;20.082;2022-12-29T00:11:28;12.10;;;4.60;;
67640;SDS011;54434;50.096;20.082;2022-12-29T00:14:05;12.10;;;5.20;;
67640;SDS011;54434;50.096;20.082;2022-12-29T00:16:59;13.00;;;5.10;;
67640;SDS011;54434;50.096;20.082;2022-12-29T00:19:36;11.30;;;5.00;;
67640;SDS011;54434;50.096;20.082;2022-12-29T00:22:30;11.10;;;5.50;;
67640;SDS011;54434;50.096;20.082;2022-12-29T00:25:24;14.30;;;5.20;;
67640;SDS011;54434;50.096;20.082;2022-12-29T00:28:17;11.20;;;4.80;;
67640;SDS011;54434;50.096;20.082;2022-12-29T00:31:13;11.10;;;4.90;;
67640;SDS011;54434;50.096;20.082;2022-12-29T00:34:09;11.70;;;5.00;;
67640;SDS011;54434;50.096;20.082;2022-12-29T00:37:04;12.80;;;4.70;;
67640;SDS011;54434;50.096;20.082;2022-12-29T00:39:41;12.80;;;5.20;;
67640;SDS011;54434;50.096;20.082;2022-12-29T00:42:37;12.80;;;5.70;;
67640;SDS011;54434;50.096;20.082;2022-12-29T00:45:32;13.30;;;5.00;;
67640;SDS011;54434;50.096;20.082;2022-12-29T00:48:10;14.50;;;5.60;;
67640;SDS011;54434;50.096;20.082;2022-12-29T00:50:46;12.80;;;5.10;;
67640;SDS011;54434;50.096;20.082;2022-12-29T00:53:22;10.20;;;4.80;;
67640;SDS011;54434;50.096;20.082;2022-12-29T00:55:59;13.00;;;5.70;;
67640;SDS011;54434;50.096;20.082;2022-12-29T00:58:35;10.90;;;4.70;;
67640;SDS011;54434;50.096;20.082;2022-12-29T01:01:14;12.30;;;5.30;;
67640;SDS011;54434;50.096;20.082;2022-12-29T01:03:50;11.90;;;5.10;;
67640;SDS011;54434;50.096;20.082;2022-12-29T01:06:34;12.20;;;5.10;;
67640;SDS011;54434;50.096;20.082;2022-12-29T01:09:13;12.30;;;5.30;;
67640;SDS011;54434;50.096;20.082;2022-12-29T01:12:11;12.20;;;5.60;;
67640;SDS011;54434;50.096;20.082;2022-12-29T01:14:47;11.80;;;5.00;;
67640;SDS011;54434;50.096;20.082;2022-12-29T01:17:25;10.30;;;4.70;;
67640;SDS011;54434;50.096;20.082;2022-12-29T01:20:02;11.60;;;5.20;;
67640;SDS011;54434;50.096;20.082;2022-12-29T01:22:41;11.30;;;5.30;;
67640;SDS011;54434;50.096;20.082;2022-12-29T01:25:17;13.10;;;5.50;;
67640;SDS011;54434;50.096;20.082;2022-12-29T01:27:53;9.30;;;4.80;;
67640;SDS011;54434;50.096;20.082;2022-12-29T01:30:32;13.10;;;6.00;;
67640;SDS011;54434;50.096;20.082;2022-12-29T01:33:08;13.30;;;5.40;;
67640;SDS011;54434;50.096;20.082;2022-12-29T01:35:45;11.10;;;5.30;;
67640;SDS011;54434;50.096;20.082;2022-12-29T01:38:21;11.10;;;5.00;;
67640;SDS011;54434;50.096;20.082;2022-12-29T01:40:58;12.90;;;5.60;;
67640;SDS011;54434;50.096;20.082;2022-12-29T01:43:44;9.10;;;4.80;;
67640;SDS011;54434;50.096;20.082;2022-12-29T01:46:28;11.80;;;5.00;;
67640;SDS011;54434;50.096;20.082;2022-12-29T01:49:15;13.20;;;5.60;;
67640;SDS011;54434;50.096;20.082;2022-12-29T01:51:57;10.10;;;4.50;;
67640;SDS011;54434;50.096;20.082;2022-12-29T01:54:42;13.90;;;5.50;;
67640;SDS011;54434;50.096;20.082;2022-12-29T01:57:27;11.50;;;5.40;;
67640;SDS011;54434;50.096;20.082;2022-12-29T02:00:10;11.30;;;4.80;;
67640;SDS011;54434;50.096;20.082;2022-12-29T02:02:54;11.80;;;5.40;;
67640;SDS011;54434;50.096;20.082;2022-12-29T02:05:36;12.10;;;5.40;;
67640;SDS011;54434;50.096;20.082;2022-12-29T02:08:18;12.60;;;5.10;;
67640;SDS011;54434;50.096;20.082;2022-12-29T02:10:56;11.00;;;4.90;;
67640;SDS011;54434;50.096;20.082;2022-12-29T02:13:35;10.40;;;4.80;;
67640;SDS011;54434;50.096;20.082;2022-12-29T02:16:26;9.40;;;4.40;;
67640;SDS011;54434;50.096;20.082;2022-12-29T02:19:54;11.00;;;4.70;;
67640;SDS011;54434;50.096;20.082;2022-12-29T02:23:00;9.80;;;4.60;;
67640;SDS011;54434;50.096;20.082;2022-12-29T02:26:19;10.30;;;4.60;;
67640;SDS011;54434;50.096;20.082;2022-12-29T02:29:52;9.60;;;4.20;;
67640;SDS011;54434;50.096;20.082;2022-12-29T02:32:49;8.30;;;4.00;;
67640;SDS011;54434;50.096;20.082;2022-12-29T02:35:43;9.20;;;4.30;;
67640;SDS011;54434;50.096;20.082;2022-12-29T02:38:37;8.10;;;3.50;;
67640;SDS011;54434;50.096;20.082;2022-12-29T02:41:29;9.40;;;3.90;;
67640;SDS011;54434;50.096;20.082;2022-12-29T02:44:15;7.90;;;4.00;;
67640;SDS011;54434;50.096;20.082;2022-12-29T02:47:07;8.30;;;3.60;;
67640;SDS011;54434;50.096;20.082;2022-12-29T02:52:39;8.30;;;3.20;;
67640;SDS011;54434;50.096;20.082;2022-12-29T02:55:21;7.60;;;3.60;;
67640;SDS011;54434;50.096;20.082;2022-12-29T02:58:19;7.10;;;3.80;;
67640;SDS011;54434;50.096;20.082;2022-12-29T03:01:20;7.70;;;3.10;;
67640;SDS011;54434;50.096;20.082;2022-12-29T03:04:26;7.80;;;3.30;;
67640;SDS011;54434;50.096;20.082;2022-12-29T03:07:18;6.60;;;3.40;;
67640;SDS011;54434;50.096;20.082;2022-12-29T03:10:12;7.40;;;3.70;;
67640;SDS011;54434;50.096;20.082;2022-12-29T03:13:02;7.80;;;3.70;;
67640;SDS011;54434;50.096;20.082;2022-12-29T03:16:07;6.10;;;2.90;;
67640;SDS011;54434;50.096;20.082;2022-12-29T03:19:00;7.50;;;3.20;;
67640;SDS011;54434;50.096;20.082;2022-12-29T03:21:43;8.50;;;3.20;;
67640;SDS011;54434;50.096;20.082;2022-12-29T03:24:47;8.10;;;3.50;;
67640;SDS011;54434;50.096;20.082;2022-12-29T03:27:30;7.40;;;3.50;;
67640;SDS011;54434;50.096;20.082;2022-12-29T03:30:12;8.80;;;3.30;;
67640;SDS011;54434;50.096;20.082;2022-12-29T03:32:52;6.70;;;3.30;;
67640;SDS011;54434;50.096;20.082;2022-12-29T03:35:37;6.40;;;3.00;;
67640;SDS011;54434;50.096;20.082;2022-12-29T03:38:21;7.90;;;3.50;;
67640;SDS011;54434;50.096;20.082;2022-12-29T03:41:05;8.80;;;3.80;;
67640;SDS011;54434;50.096;20.082;2022-12-29T03:46:19;6.90;;;3.20;;
67640;SDS011;54434;50.096;20.082;2022-12-29T03:48:56;10.90;;;3.50;;
67640;SDS011;54434;50.096;20.082;2022-12-29T03:51:32;7.00;;;3.70;;
67640;SDS011;54434;50.096;20.082;2022-12-29T03:54:10;10.50;;;4.10;;
67640;SDS011;54434;50.096;20.082;2022-12-29T03:56:48;8.00;;;3.40;;
67640;SDS011;54434;50.096;20.082;2022-12-29T04:02:06;7.40;;;3.60;;
67640;SDS011;54434;50.096;20.082;2022-12-29T04:04:43;7.40;;;3.80;;
67640;SDS011;54434;50.096;20.082;2022-12-29T04:07:19;7.80;;;3.80;;
67640;SDS011;54434;50.096;20.082;2022-12-29T04:09:58;7.70;;;3.60;;
67640;SDS011;54434;50.096;20.082;2022-12-29T04:12:34;6.70;;;3.00;;
67640;SDS011;54434;50.096;20.082;2022-12-29T04:15:12;7.30;;;3.50;;
67640;SDS011;54434;50.096;20.082;2022-12-29T04:17:50;7.10;;;3.60;;
67640;SDS011;54434;50.096;20.082;2022-12-29T04:20:27;7.20;;;3.30;;
67640;SDS011;54434;50.096;20.082;2022-12-29T04:23:21;8.90;;;3.40;;
67640;SDS011;54434;50.096;20.082;2022-12-29T04:25:58;6.30;;;3.50;;
67640;SDS011;54434;50.096;20.082;2022-12-29T04:28:34;9.90;;;3.50;;
67640;SDS011;54434;50.096;20.082;2022-12-29T04:31:52;7.30;;;3.40;;
67640;SDS011;54434;50.096;20.082;2022-12-29T04:34:28;6.70;;;3.50;;
67640;SDS011;54434;50.096;20.082;2022-12-29T04:37:06;7.70;;;3.50;;
67640;SDS011;54434;50.096;20.082;2022-12-29T04:39:42;6.20;;;3.40;;
67640;SDS011;54434;50.096;20.082;2022-12-29T04:42:18;7.00;;;3.40;;
67640;SDS011;54434;50.096;20.082;2022-12-29T04:44:56;6.80;;;3.40;;
67640;SDS011;54434;50.096;20.082;2022-12-29T04:47:51;7.30;;;3.60;;
67640;SDS011;54434;50.096;20.082;2022-12-29T04:51:23;8.80;;;3.90;;
67640;SDS011;54434;50.096;20.082;2022-12-29T04:53:59;8.00;;;4.10;;
67640;SDS011;54434;50.096;20.082;2022-12-29T04:56:36;9.70;;;4.20;;
67640;SDS011;54434;50.096;20.082;2022-12-29T04:59:13;8.10;;;4.10;;
67640;SDS011;54434;50.096;20.082;2022-12-29T05:01:52;9.60;;;4.00;;
67640;SDS011;54434;50.096;20.082;2022-12-29T05:04:29;7.10;;;3.70;;
67640;SDS011;54434;50.096;20.082;2022-12-29T05:07:06;8.10;;;4.20;;
67640;SDS011;54434;50.096;20.082;2022-12-29T05:09:43;9.70;;;4.50;;
67640;SDS011;54434;50.096;20.082;2022-12-29T05:12:19;9.60;;;4.10;;
67640;SDS011;54434;50.096;20.082;2022-12-29T05:15:04;8.20;;;4.30;;
67640;SDS011;54434;50.096;20.082;2022-12-29T05:17:43;6.90;;;3.90;;
67640;SDS011;54434;50.096;20.082;2022-12-29T05:20:20;13.90;;;6.10;;
67640;SDS011;54434;50.096;20.082;2022-12-29T05:22:56;10.80;;;5.00;;
67640;SDS011;54434;50.096;20.082;2022-12-29T05:25:33;12.00;;;4.70;;
67640;SDS011;54434;50.096;20.082;2022-12-29T05:28:23;9.70;;;4.40;;
67640;SDS011;54434;50.096;20.082;2022-12-29T05:31:15;10.90;;;4.80;;
67640;SDS011;54434;50.096;20.082;2022-12-29T05:33:52;10.10;;;4.90;;
67640;SDS011;54434;50.096;20.082;2022-12-29T05:36:29;10.20;;;4.90;;
67640;SDS011;54434;50.096;20.082;2022-12-29T05:39:12;9.20;;;4.90;;
67640;SDS011;54434;50.096;20.082;2022-12-29T05:41:50;8.60;;;4.30;;
67640;SDS011;54434;50.096;20.082;2022-12-29T05:45:13;9.90;;;4.80;;
67640;SDS011;54434;50.096;20.082;2022-12-29T05:48:01;9.40;;;4.70;;
67640;SDS011;54434;50.096;20.082;2022-12-29T05:50:51;10.70;;;4.80;;
67640;SDS011;54434;50.096;20.082;2022-12-29T05:53:37;9.10;;;4.90;;
67640;SDS011;54434;50.096;20.082;2022-12-29T05:56:13;11.80;;;5.30;;
67640;SDS011;54434;50.096;20.082;2022-12-29T05:58:55;9.10;;;5.00;;
67640;SDS011;54434;50.096;20.082;2022-12-29T06:01:31;10.30;;;4.70;;
67640;SDS011;54434;50.096;20.082;2022-12-29T06:04:08;11.20;;;5.30;;
67640;SDS011;54434;50.096;20.082;2022-12-29T06:06:44;14.50;;;4.90;;
67640;SDS011;54434;50.096;20.082;2022-12-29T06:09:34;11.10;;;4.90;;
67640;SDS011;54434;50.096;20.082;2022-12-29T06:12:11;9.90;;;4.50;;
67640;SDS011;54434;50.096;20.082;2022-12-29T06:14:50;11.30;;;5.10;;
67640;SDS011;54434;50.096;20.082;2022-12-29T06:17:27;13.40;;;5.70;;
67640;SDS011;54434;50.096;20.082;2022-12-29T06:20:05;10.30;;;5.10;;
67640;SDS011;54434;50.096;20.082;2022-12-29T06:22:43;12.80;;;5.20;;
67640;SDS011;54434;50.096;20.082;2022-12-29T06:25:20;9.20;;;4.90;;
67640;SDS011;54434;50.096;20.082;2022-12-29T06:27:57;10.80;;;4.90;;
67640;SDS011;54434;50.096;20.082;2022-12-29T06:30:33;9.10;;;5.00;;
67640;SDS011;54434;50.096;20.082;2022-12-29T06:33:10;13.90;;;5.40;;
67640;SDS011;54434;50.096;20.082;2022-12-29T06:35:47;12.50;;;5.50;;
67640;SDS011;54434;50.096;20.082;2022-12-29T06:38:23;11.70;;;5.50;;
67640;SDS011;54434;50.096;20.082;2022-12-29T06:41:00;11.70;;;5.10;;
67640;SDS011;54434;50.096;20.082;2022-12-29T06:43:55;15.00;;;5.10;;
67640;SDS011;54434;50.096;20.082;2022-12-29T06:46:42;9.90;;;4.70;;
67640;SDS011;54434;50.096;20.082;2022-12-29T06:49:19;10.70;;;4.90;;
67640;SDS011;54434;50.096;20.082;2022-12-29T06:51:56;9.30;;;4.90;;
67640;SDS011;54434;50.096;20.082;2022-12-29T06:54:34;10.60;;;4.70;;
67640;SDS011;54434;50.096;20.082;2022-12-29T06:57:10;10.00;;;4.70;;
67640;SDS011;54434;50.096;20.082;2022-12-29T06:59:47;13.60;;;5.50;;
67640;SDS011;54434;50.096;20.082;2022-12-29T07:02:23;11.10;;;5.20;;
67640;SDS011;54434;50.096;20.082;2022-12-29T07:05:00;10.60;;;5.10;;
67640;SDS011;54434;50.096;20.082;2022-12-29T07:07:36;12.30;;;5.30;;
67640;SDS011;54434;50.096;20.082;2022-12-29T07:10:12;13.20;;;5.00;;
67640;SDS011;54434;50.096;20.082;2022-12-29T07:12:49;12.40;;;5.20;;
67640;SDS011;54434;50.096;20.082;2022-12-29T07:15:25;10.00;;;5.20;;
67640;SDS011;54434;50.096;20.082;2022-12-29T07:18:02;12.60;;;5.50;;
67640;SDS011;54434;50.096;20.082;2022-12-29T07:20:38;10.40;;;5.50;;
67640;SDS011;54434;50.096;20.082;2022-12-29T07:23:15;14.10;;;5.30;;
67640;SDS011;54434;50.096;20.082;2022-12-29T07:25:51;10.20;;;4.80;;
67640;SDS011;54434;50.096;20.082;2022-12-29T07:28:35;10.90;;;5.00;;
67640;SDS011;54434;50.096;20.082;2022-12-29T07:31:16;11.40;;;5.10;;
67640;SDS011;54434;50.096;20.082;2022-12-29T07:33:55;13.30;;;5.30;;
67640;SDS011;54434;50.096;20.082;2022-12-29T07:36:32;15.90;;;5.00;;
67640;SDS011;54434;50.096;20.082;2022-12-29T07:39:09;12.60;;;5.20;;
67640;SDS011;54434;50.096;20.082;2022-12-29T07:41:46;18.70;;;5.30;;
67640;SDS011;54434;50.096;20.082;2022-12-29T07:44:25;11.90;;;5.50;;
67640;SDS011;54434;50.096;20.082;2022-12-29T07:47:18;15.00;;;5.60;;
67640;SDS011;54434;50.096;20.082;2022-12-29T07:49:54;10.90;;;5.20;;
67640;SDS011;54434;50.096;20.082;2022-12-29T07:52:30;26.30;;;11.00;;
67640;SDS011;54434;50.096;20.082;2022-12-29T07:55:09;20.50;;;8.60;;
67640;SDS011;54434;50.096;20.082;2022-12-29T07:57:45;15.60;;;6.20;;
67640;SDS011;54434;50.096;20.082;2022-12-29T08:00:22;11.20;;;5.10;;
67640;SDS011;54434;50.096;20.082;2022-12-29T08:02:58;11.40;;;5.50;;
67640;SDS011;54434;50.096;20.082;2022-12-29T08:05:36;11.60;;;5.30;;
67640;SDS011;54434;50.096;20.082;2022-12-29T08:08:13;12.10;;;6.00;;
67640;SDS011;54434;50.096;20.082;2022-12-29T08:10:49;13.10;;;5.30;;
67640;SDS011;54434;50.096;20.082;2022-12-29T08:13:25;14.50;;;5.30;;
67640;SDS011;54434;50.096;20.082;2022-12-29T08:16:02;9.40;;;4.70;;
67640;SDS011;54434;50.096;20.082;2022-12-29T08:18:39;10.50;;;5.20;;
67640;SDS011;54434;50.096;20.082;2022-12-29T08:21:16;12.80;;;4.70;;
67640;SDS011;54434;50.096;20.082;2022-12-29T08:23:52;9.70;;;4.90;;
67640;SDS011;54434;50.096;20.082;2022-12-29T08:26:28;12.70;;;5.30;;
67640;SDS011;54434;50.096;20.082;2022-12-29T08:29:05;13.80;;;5.70;;
67640;SDS011;54434;50.096;20.082;2022-12-29T08:31:41;21.60;;;5.80;;
67640;SDS011;54434;50.096;20.082;2022-12-29T08:34:17;17.20;;;5.20;;
67640;SDS011;54434;50.096;20.082;2022-12-29T08:36:54;16.00;;;5.10;;
67640;SDS011;54434;50.096;20.082;2022-12-29T08:39:30;18.80;;;5.80;;
67640;SDS011;54434;50.096;20.082;2022-12-29T08:42:07;12.10;;;5.80;;
67640;SDS011;54434;50.096;20.082;2022-12-29T08:44:43;12.10;;;5.00;;
67640;SDS011;54434;50.096;20.082;2022-12-29T08:47:20;12.70;;;4.70;;
67640;SDS011;54434;50.096;20.082;2022-12-29T08:49:56;13.60;;;5.20;;
67640;SDS011;54434;50.096;20.082;2022-12-29T08:52:32;16.60;;;4.90;;
67640;SDS011;54434;50.096;20.082;2022-12-29T08:55:10;11.10;;;5.00;;
67640;SDS011;54434;50.096;20.082;2022-12-29T08:57:47;13.00;;;5.30;;
67640;SDS011;54434;50.096;20.082;2022-12-29T09:00:25;17.80;;;5.70;;
67640;SDS011;54434;50.096;20.082;2022-12-29T09:03:02;13.50;;;5.60;;
67640;SDS011;54434;50.096;20.082;2022-12-29T09:05:40;9.90;;;5.20;;
67640;SDS011;54434;50.096;20.082;2022-12-29T09:08:16;13.20;;;5.80;;
67640;SDS011;54434;50.096;20.082;2022-12-29T09:13:42;23.70;;;10.70;;
67640;SDS011;54434;50.096;20.082;2022-12-29T09:16:20;14.00;;;6.40;;
67640;SDS011;54434;50.096;20.082;2022-12-29T09:18:57;16.20;;;6.00;;
67640;SDS011;54434;50.096;20.082;2022-12-29T09:21:34;15.70;;;6.00;;
67640;SDS011;54434;50.096;20.082;2022-12-29T09:24:11;19.40;;;5.70;;
67640;SDS011;54434;50.096;20.082;2022-12-29T09:26:47;12.00;;;5.30;;
67640;SDS011;54434;50.096;20.082;2022-12-29T09:29:24;12.80;;;5.30;;
67640;SDS011;54434;50.096;20.082;2022-12-29T09:32:00;18.10;;;5.50;;
67640;SDS011;54434;50.096;20.082;2022-12-29T09:34:40;15.90;;;5.40;;
67640;SDS011;54434;50.096;20.082;2022-12-29T09:37:16;19.00;;;5.40;;
67640;SDS011;54434;50.096;20.082;2022-12-29T09:39:52;11.10;;;4.80;;
67640;SDS011;54434;50.096;20.082;2022-12-29T09:42:35;16.20;;;7.30;;
67640;SDS011;54434;50.096;20.082;2022-12-29T09:45:20;13.80;;;5.80;;
67640;SDS011;54434;50.096;20.082;2022-12-29T09:48:00;15.00;;;4.70;;
67640;SDS011;54434;50.096;20.082;2022-12-29T09:50:46;9.00;;;4.70;;
67640;SDS011;54434;50.096;20.082;2022-12-29T09:53:31;9.70;;;4.60;;
67640;SDS011;54434;50.096;20.082;2022-12-29T09:56:17;10.80;;;4.40;;
67640;SDS011;54434;50.096;20.082;2022-12-29T09:59:00;9.30;;;4.40;;
67640;SDS011;54434;50.096;20.082;2022-12-29T10:01:49;11.00;;;3.90;;
67640;SDS011;54434;50.096;20.082;2022-12-29T10:04:31;9.20;;;4.50;;
67640;SDS011;54434;50.096;20.082;2022-12-29T10:07:16;10.10;;;4.10;;
67640;SDS011;54434;50.096;20.082;2022-12-29T10:10:14;9.10;;;3.80;;
67640;SDS011;54434;50.096;20.082;2022-12-29T10:13:16;6.90;;;3.70;;
67640;SDS011;54434;50.096;20.082;2022-12-29T10:16:09;12.80;;;4.10;;
67640;SDS011;54434;50.096;20.082;2022-12-29T10:19:04;14.60;;;4.30;;
67640;SDS011;54434;50.096;20.082;2022-12-29T10:22:03;11.90;;;4.70;;
67640;SDS011;54434;50.096;20.082;2022-12-29T10:24:56;11.40;;;4.60;;
67640;SDS011;54434;50.096;20.082;2022-12-29T10:27:36;14.50;;;4.20;;
67640;SDS011;54434;50.096;20.082;2022-12-29T10:30:16;10.30;;;4.00;;
67640;SDS011;54434;50.096;20.082;2022-12-29T10:32:55;16.10;;;6.80;;
67640;SDS011;54434;50.096;20.082;2022-12-29T10:35:37;10.90;;;4.40;;
67640;SDS011;54434;50.096;20.082;2022-12-29T10:38:25;13.80;;;4.50;;
67640;SDS011;54434;50.096;20.082;2022-12-29T10:41:15;12.60;;;4.40;;
67640;SDS011;54434;50.096;20.082;2022-12-29T10:43:58;14.80;;;4.20;;
67640;SDS011;54434;50.096;20.082;2022-12-29T10:46:38;9.70;;;4.40;;
67640;SDS011;54434;50.096;20.082;2022-12-29T10:49:19;13.30;;;4.50;;
67640;SDS011;54434;50.096;20.082;2022-12-29T10:52:00;12.70;;;5.00;;
67640;SDS011;54434;50.096;20.082;2022-12-29T10:54:44;9.00;;;4.40;;
67640;SDS011;54434;50.096;20.082;2022-12-29T10:57:30;11.50;;;4.40;;
67640;SDS011;54434;50.096;20.082;2022-12-29T11:00:17;15.40;;;5.00;;
67640;SDS011;54434;50.096;20.082;2022-12-29T11:03:21;15.00;;;4.30;;
67640;SDS011;54434;50.096;20.082;2022-12-29T11:06:21;13.70;;;4.40;;
67640;SDS011;54434;50.096;20.082;2022-12-29T11:09:08;10.70;;;4.20;;
67640;SDS011;54434;50.096;20.082;2022-12-29T11:11:49;14.10;;;4.90;;
67640;SDS011;54434;50.096;20.082;2022-12-29T11:14:30;14.20;;;4.60;;
67640;SDS011;54434;50.096;20.082;2022-12-29T11:17:16;11.60;;;4.40;;
67640;SDS011;54434;50.096;20.082;2022-12-29T11:19:52;13.60;;;4.40;;
67640;SDS011;54434;50.096;20.082;2022-12-29T11:22:30;9.10;;;4.20;;
67640;SDS011;54434;50.096;20.082;2022-12-29T11:25:13;7.40;;;4.10;;
67640;SDS011;54434;50.096;20.082;2022-12-29T11:28:02;12.20;;;4.50;;
67640;SDS011;54434;50.096;20.082;2022-12-29T11:31:00;11.20;;;4.80;;
67640;SDS011;54434;50.096;20.082;2022-12-29T11:33:39;10.40;;;4.00;;
67640;SDS011;54434;50.096;20.082;2022-12-29T11:36:19;15.50;;;4.70;;
67640;SDS011;54434;50.096;20.082;2022-12-29T11:38:58;19.90;;;4.50;;
67640;SDS011;54434;50.096;20.082;2022-12-29T11:41:35;12.80;;;4.50;;
67640;SDS011;54434;50.096;20.082;2022-12-29T11:44:15;15.40;;;4.60;;
67640;SDS011;54434;50.096;20.082;2022-12-29T11:46:53;13.90;;;4.50;;
67640;SDS011;54434;50.096;20.082;2022-12-29T11:49:30;17.90;;;4.70;;
67640;SDS011;54434;50.096;20.082;2022-12-29T11:52:08;11.10;;;4.30;;
67640;SDS011;54434;50.096;20.082;2022-12-29T11:54:47;14.50;;;4.60;;
67640;SDS011;54434;50.096;20.082;2022-12-29T11:57:25;11.00;;;4.50;;
67640;SDS011;54434;50.096;20.082;2022-12-29T12:00:05;11.00;;;4.40;;
67640;SDS011;54434;50.096;20.082;2022-12-29T12:02:56;19.10;;;4.70;;
67640;SDS011;54434;50.096;20.082;2022-12-29T12:05:43;9.20;;;4.00;;
67640;SDS011;54434;50.096;20.082;2022-12-29T12:08:38;11.60;;;4.20;;
67640;SDS011;54434;50.096;20.082;2022-12-29T12:11:20;14.50;;;4.40;;
67640;SDS011;54434;50.096;20.082;2022-12-29T12:14:04;9.10;;;3.60;;
67640;SDS011;54434;50.096;20.082;2022-12-29T12:17:11;8.10;;;3.90;;
67640;SDS011;54434;50.096;20.082;2022-12-29T12:19:56;8.40;;;3.90;;
67640;SDS011;54434;50.096;20.082;2022-12-29T12:22:40;8.10;;;3.60;;
67640;SDS011;54434;50.096;20.082;2022-12-29T12:25:22;8.20;;;3.20;;
67640;SDS011;54434;50.096;20.082;2022-12-29T12:28:11;9.70;;;3.80;;
67640;SDS011;54434;50.096;20.082;2022-12-29T12:30:58;9.50;;;3.40;;
67640;SDS011;54434;50.096;20.082;2022-12-29T12:33:41;9.10;;;3.30;;
67640;SDS011;54434;50.096;20.082;2022-12-29T12:36:46;8.80;;;3.20;;
67640;SDS011;54434;50.096;20.082;2022-12-29T12:39:46;5.70;;;3.00;;
67640;SDS011;54434;50.096;20.082;2022-12-29T12:42:42;8.20;;;3.40;;
67640;SDS011;54434;50.096;20.082;2022-12-29T12:45:42;7.70;;;3.20;;
67640;SDS011;54434;50.096;20.082;2022-12-29T12:48:48;8.80;;;3.60;;
67640;SDS011;54434;50.096;20.082;2022-12-29T12:51:46;11.90;;;3.90;;
67640;SDS011;54434;50.096;20.082;2022-12-29T12:55:01;7.00;;;3.80;;
67640;SDS011;54434;50.096;20.082;2022-12-29T12:57:56;10.00;;;3.90;;
67640;SDS011;54434;50.096;20.082;2022-12-29T13:00:49;6.50;;;3.60;;
67640;SDS011;54434;50.096;20.082;2022-12-29T13:03:58;8.70;;;3.20;;
67640;SDS011;54434;50.096;20.082;2022-12-29T13:09:40;9.90;;;3.50;;
67640;SDS011;54434;50.096;20.082;2022-12-29T13:12:36;9.00;;;3.80;;
67640;SDS011;54434;50.096;20.082;2022-12-29T13:15:38;9.50;;;3.60;;
67640;SDS011;54434;50.096;20.082;2022-12-29T13:18:27;8.90;;;3.80;;
67640;SDS011;54434;50.096;20.082;2022-12-29T13:21:26;7.90;;;3.90;;
67640;SDS011;54434;50.096;20.082;2022-12-29T13:24:18;8.40;;;3.40;;
67640;SDS011;54434;50.096;20.082;2022-12-29T13:27:10;7.60;;;3.80;;
67640;SDS011;54434;50.096;20.082;2022-12-29T13:32:51;11.30;;;3.80;;
67640;SDS011;54434;50.096;20.082;2022-12-29T13:35:51;8.00;;;4.00;;
67640;SDS011;54434;50.096;20.082;2022-12-29T13:38:36;7.40;;;3.40;;
67640;SDS011;54434;50.096;20.082;2022-12-29T13:41:21;9.10;;;4.00;;
67640;SDS011;54434;50.096;20.082;2022-12-29T13:44:05;10.70;;;4.30;;
67640;SDS011;54434;50.096;20.082;2022-12-29T13:46:47;9.70;;;4.60;;
67640;SDS011;54434;50.096;20.082;2022-12-29T13:52:15;9.20;;;4.40;;
67640;SDS011;54434;50.096;20.082;2022-12-29T13:55:17;11.50;;;4.50;;
67640;SDS011;54434;50.096;20.082;2022-12-29T13:58:09;12.90;;;5.00;;
67640;SDS011;54434;50.096;20.082;2022-12-29T14:00:58;9.90;;;4.40;;
67640;SDS011;54434;50.096;20.082;2022-12-29T14:03:48;10.70;;;4.50;;
67640;SDS011;54434;50.096;20.082;2022-12-29T14:06:27;11.00;;;4.40;;
67640;SDS011;54434;50.096;20.082;2022-12-29T14:12:40;13.30;;;5.10;;
67640;SDS011;54434;50.096;20.082;2022-12-29T14:15:27;13.00;;;4.60;;
67640;SDS011;54434;50.096;20.082;2022-12-29T14:18:13;14.20;;;4.70;;
67640;SDS011;54434;50.096;20.082;2022-12-29T14:20:55;14.60;;;4.50;;
67640;SDS011;54434;50.096;20.082;2022-12-29T14:26:32;10.10;;;4.80;;
67640;SDS011;54434;50.096;20.082;2022-12-29T14:29:45;11.40;;;4.00;;
67640;SDS011;54434;50.096;20.082;2022-12-29T14:33:02;11.20;;;4.40;;
67640;SDS011;54434;50.096;20.082;2022-12-29T14:35:48;12.00;;;4.80;;
67640;SDS011;54434;50.096;20.082;2022-12-29T14:38:29;14.00;;;4.30;;
67640;SDS011;54434;50.096;20.082;2022-12-29T14:41:32;19.20;;;8.10;;
67640;SDS011;54434;50.096;20.082;2022-12-29T14:44:21;16.10;;;7.10;;
67640;SDS011;54434;50.096;20.082;2022-12-29T14:47:05;11.20;;;4.60;;
67640;SDS011;54434;50.096;20.082;2022-12-29T14:49:45;15.60;;;4.70;;
67640;SDS011;54434;50.096;20.082;2022-12-29T14:52:24;13.20;;;5.00;;
67640;SDS011;54434;50.096;20.082;2022-12-29T14:55:36;17.00;;;4.30;;
67640;SDS011;54434;50.096;20.082;2022-12-29T14:58:20;14.00;;;4.10;;
67640;SDS011;54434;50.096;20.082;2022-12-29T15:01:01;12.70;;;4.60;;
67640;SDS011;54434;50.096;20.082;2022-12-29T15:03:45;12.40;;;4.50;;
67640;SDS011;54434;50.096;20.082;2022-12-29T15:06:27;10.70;;;4.60;;
67640;SDS011;54434;50.096;20.082;2022-12-29T15:09:12;12.00;;;4.30;;
67640;SDS011;54434;50.096;20.082;2022-12-29T15:11:59;12.60;;;4.20;;
67640;SDS011;54434;50.096;20.082;2022-12-29T15:14:53;12.20;;;4.60;;
67640;SDS011;54434;50.096;20.082;2022-12-29T15:17:32;11.60;;;4.70;;
67640;SDS011;54434;50.096;20.082;2022-12-29T15:20:25;18.40;;;6.60;;
67640;SDS011;54434;50.096;20.082;2022-12-29T15:23:12;18.00;;;7.20;;
67640;SDS011;54434;50.096;20.082;2022-12-29T15:25:55;17.10;;;6.60;;
67640;SDS011;54434;50.096;20.082;2022-12-29T15:28:41;25.40;;;9.10;;
67640;SDS011;54434;50.096;20.082;2022-12-29T15:31:20;19.70;;;6.90;;
67640;SDS011;54434;50.096;20.082;2022-12-29T15:34:13;16.40;;;7.10;;
67640;SDS011;54434;50.096;20.082;2022-12-29T15:36:51;16.40;;;6.90;;
67640;SDS011;54434;50.096;20.082;2022-12-29T15:39:30;13.80;;;6.40;;
67640;SDS011;54434;50.096;20.082;2022-12-29T15:42:21;13.80;;;6.20;;
67640;SDS011;54434;50.096;20.082;2022-12-29T15:45:14;15.40;;;6.30;;
67640;SDS011;54434;50.096;20.082;2022-12-29T15:47:53;18.20;;;8.50;;
67640;SDS011;54434;50.096;20.082;2022-12-29T15:50:35;26.80;;;9.70;;
67640;SDS011;54434;50.096;20.082;2022-12-29T15:53:20;21.80;;;9.80;;
67640;SDS011;54434;50.096;20.082;2022-12-29T15:56:05;17.00;;;8.20;;
67640;SDS011;54434;50.096;20.082;2022-12-29T15:58:47;19.30;;;7.60;;
67640;SDS011;54434;50.096;20.082;2022-12-29T16:01:29;15.90;;;8.00;;
67640;SDS011;54434;50.096;20.082;2022-12-29T16:04:09;15.70;;;7.50;;
67640;SDS011;54434;50.096;20.082;2022-12-29T16:07:01;16.80;;;7.20;;
67640;SDS011;54434;50.096;20.082;2022-12-29T16:09:54;15.50;;;7.30;;
67640;SDS011;54434;50.096;20.082;2022-12-29T16:12:36;15.70;;;7.40;;
67640;SDS011;54434;50.096;20.082;2022-12-29T16:15:18;20.60;;;7.90;;
67640;SDS011;54434;50.096;20.082;2022-12-29T16:17:56;19.30;;;7.40;;
67640;SDS011;54434;50.096;20.082;2022-12-29T16:20:42;17.00;;;6.70;;
67640;SDS011;54434;50.096;20.082;2022-12-29T16:23:23;18.50;;;6.40;;
67640;SDS011;54434;50.096;20.082;2022-12-29T16:26:04;14.30;;;6.50;;
67640;SDS011;54434;50.096;20.082;2022-12-29T16:28:55;14.90;;;6.60;;
67640;SDS011;54434;50.096;20.082;2022-12-29T16:31:47;13.60;;;6.70;;